RYR3BU EGNM-EPKK
Flight info
| Callsign | RYR3BU |
|---|---|
| Flight time | N/A |
| Altitude | 37000 |
| Route | LAMIX L603 LAMSO DCT POVEL L986 MAG DCT LASIS T714 MOFKE |
| Aircraft | B738/M-SDE3FGILRWY/SB1 |
Departure
| Time | N/A |
|---|---|
| Airport | Leeds Bradford Airport (EGNM) |
Arrival
| Time | 2026-05-03 21:19 |
|---|---|
| Airport | Kraków John Paul II International Airport (EPKK) |
| Time | Latitude | Longitude | Altitude | Speed | Heading |
|---|---|---|---|---|---|
| 2026-05-03 20:15 | 52.02955 | 11.54800 | 36933 ft | 451 kts | 106° |
| 2026-05-03 20:15 | 52.01567 | 11.64726 | 36934 ft | 451 kts | 106° |
| 2026-05-03 20:16 | 52.00172 | 11.74651 | 36929 ft | 450 kts | 106° |
| 2026-05-03 20:16 | 51.98716 | 11.84513 | 36930 ft | 449 kts | 108° |
| 2026-05-03 20:17 | 51.97037 | 11.94250 | 36926 ft | 448 kts | 109° |
| 2026-05-03 20:17 | 51.95317 | 12.03969 | 36927 ft | 448 kts | 109° |
| 2026-05-03 20:18 | 51.93613 | 12.13696 | 36929 ft | 448 kts | 109° |
| 2026-05-03 20:18 | 51.91920 | 12.23415 | 36929 ft | 448 kts | 109° |
| 2026-05-03 20:19 | 51.90222 | 12.33140 | 36929 ft | 449 kts | 109° |
| 2026-05-03 20:19 | 51.88517 | 12.42852 | 36925 ft | 449 kts | 109° |
| 2026-05-03 20:20 | 51.86801 | 12.52572 | 36918 ft | 449 kts | 109° |
| 2026-05-03 20:20 | 51.85075 | 12.62296 | 36926 ft | 450 kts | 109° |
| 2026-05-03 20:21 | 51.83340 | 12.72016 | 36921 ft | 450 kts | 109° |
| 2026-05-03 20:21 | 51.81593 | 12.81748 | 36904 ft | 451 kts | 109° |
| 2026-05-03 20:22 | 51.79840 | 12.91467 | 36912 ft | 451 kts | 109° |
| 2026-05-03 20:22 | 51.78074 | 13.01199 | 36912 ft | 451 kts | 109° |
| 2026-05-03 20:23 | 51.76301 | 13.10923 | 36913 ft | 452 kts | 109° |
| 2026-05-03 20:23 | 51.74530 | 13.20581 | 36912 ft | 452 kts | 109° |
| 2026-05-03 20:24 | 51.72740 | 13.30295 | 36911 ft | 452 kts | 109° |
| 2026-05-03 20:24 | 51.70943 | 13.39996 | 36910 ft | 452 kts | 109° |
| 2026-05-03 20:25 | 51.69137 | 13.49694 | 36914 ft | 451 kts | 109° |
| 2026-05-03 20:25 | 51.67325 | 13.59375 | 36916 ft | 451 kts | 109° |
| 2026-05-03 20:26 | 51.65508 | 13.69025 | 36920 ft | 450 kts | 109° |
| 2026-05-03 20:26 | 51.63683 | 13.78676 | 36918 ft | 450 kts | 109° |
| 2026-05-03 20:27 | 51.61854 | 13.88296 | 36920 ft | 449 kts | 109° |
| 2026-05-03 20:27 | 51.60017 | 13.97911 | 36923 ft | 449 kts | 109° |
| 2026-05-03 20:28 | 51.58175 | 14.07499 | 36926 ft | 449 kts | 109° |
| 2026-05-03 20:28 | 51.56330 | 14.17058 | 36923 ft | 448 kts | 109° |
| 2026-05-03 20:29 | 51.54471 | 14.26639 | 36926 ft | 448 kts | 109° |
| 2026-05-03 20:29 | 51.52608 | 14.36196 | 36928 ft | 448 kts | 109° |
| 2026-05-03 20:30 | 51.50738 | 14.45738 | 36932 ft | 448 kts | 109° |
| 2026-05-03 20:30 | 51.48860 | 14.55276 | 36933 ft | 448 kts | 109° |
| 2026-05-03 20:31 | 51.46973 | 14.64812 | 36934 ft | 448 kts | 109° |
| 2026-05-03 20:31 | 51.45078 | 14.74345 | 36940 ft | 448 kts | 109° |
| 2026-05-03 20:32 | 51.43176 | 14.83867 | 36939 ft | 449 kts | 109° |
| 2026-05-03 20:32 | 51.41269 | 14.93372 | 36943 ft | 449 kts | 109° |
| 2026-05-03 20:33 | 51.39132 | 15.02752 | 36944 ft | 448 kts | 113° |
| 2026-05-03 20:33 | 51.36710 | 15.11942 | 36952 ft | 448 kts | 114° |
| 2026-05-03 20:34 | 51.34281 | 15.21107 | 36953 ft | 448 kts | 114° |
| 2026-05-03 20:34 | 51.32281 | 15.28743 | 36955 ft | 448 kts | 114° |
| 2026-05-03 20:35 | 51.29886 | 15.37920 | 36955 ft | 448 kts | 113° |
| 2026-05-03 20:35 | 51.27484 | 15.47100 | 36958 ft | 447 kts | 114° |
| 2026-05-03 20:36 | 51.25077 | 15.56257 | 36964 ft | 447 kts | 114° |
| 2026-05-03 20:36 | 51.22662 | 15.65409 | 36963 ft | 447 kts | 114° |
| 2026-05-03 20:37 | 51.20241 | 15.74546 | 36968 ft | 447 kts | 114° |
| 2026-05-03 20:37 | 51.17815 | 15.83670 | 36969 ft | 447 kts | 114° |
| 2026-05-03 20:38 | 51.15408 | 15.92790 | 36973 ft | 447 kts | 113° |
| 2026-05-03 20:38 | 51.13070 | 16.01877 | 36979 ft | 446 kts | 112° |
| 2026-05-03 20:39 | 51.10697 | 16.11075 | 36983 ft | 446 kts | 113° |
| 2026-05-03 20:39 | 51.08326 | 16.20199 | 36980 ft | 446 kts | 113° |
| 2026-05-03 20:40 | 51.05963 | 16.29242 | 36984 ft | 446 kts | 113° |
| 2026-05-03 20:40 | 51.03579 | 16.38330 | 36985 ft | 446 kts | 113° |
| 2026-05-03 20:41 | 51.01189 | 16.47411 | 36991 ft | 445 kts | 113° |
| 2026-05-03 20:41 | 50.98794 | 16.56475 | 36993 ft | 445 kts | 113° |
| 2026-05-03 20:42 | 50.96397 | 16.65532 | 36818 ft | 447 kts | 113° |
| 2026-05-03 20:42 | 50.95196 | 16.70058 | 36537 ft | 444 kts | 113° |
| 2026-05-03 20:42 | 50.94005 | 16.74543 | 36268 ft | 438 kts | 113° |
| 2026-05-03 20:42 | 50.92827 | 16.78966 | 36005 ft | 433 kts | 112° |
| 2026-05-03 20:43 | 50.91659 | 16.83345 | 35750 ft | 431 kts | 112° |
| 2026-05-03 20:43 | 50.90496 | 16.87697 | 35497 ft | 429 kts | 112° |
| 2026-05-03 20:43 | 50.89334 | 16.92035 | 35215 ft | 424 kts | 112° |
| 2026-05-03 20:43 | 50.88190 | 16.96300 | 34869 ft | 420 kts | 112° |
| 2026-05-03 20:44 | 50.87047 | 17.00553 | 34500 ft | 417 kts | 112° |
| 2026-05-03 20:44 | 50.85916 | 17.04759 | 34130 ft | 414 kts | 112° |
| 2026-05-03 20:44 | 50.84788 | 17.08939 | 33711 ft | 412 kts | 112° |
| 2026-05-03 20:44 | 50.83663 | 17.13101 | 33314 ft | 409 kts | 112° |
| 2026-05-03 20:45 | 50.82538 | 17.17200 | 32987 ft | 405 kts | 113° |
| 2026-05-03 20:45 | 50.81409 | 17.21264 | 32604 ft | 402 kts | 113° |
| 2026-05-03 20:45 | 50.80286 | 17.25292 | 32238 ft | 399 kts | 113° |
| 2026-05-03 20:45 | 50.79170 | 17.29291 | 31859 ft | 396 kts | 113° |
| 2026-05-03 20:46 | 50.78063 | 17.33263 | 31514 ft | 394 kts | 113° |
| 2026-05-03 20:46 | 50.76962 | 17.37207 | 31165 ft | 391 kts | 113° |
| 2026-05-03 20:46 | 50.75869 | 17.41125 | 30806 ft | 389 kts | 113° |
| 2026-05-03 20:46 | 50.74780 | 17.45019 | 30456 ft | 387 kts | 113° |
| 2026-05-03 20:47 | 50.73692 | 17.48899 | 30105 ft | 385 kts | 113° |
| 2026-05-03 20:47 | 50.72617 | 17.52754 | 29703 ft | 383 kts | 113° |
| 2026-05-03 20:47 | 50.71566 | 17.56590 | 29340 ft | 379 kts | 112° |
| 2026-05-03 20:47 | 50.70529 | 17.60393 | 28957 ft | 376 kts | 113° |
| 2026-05-03 20:48 | 50.69500 | 17.64164 | 28603 ft | 372 kts | 113° |
| 2026-05-03 20:48 | 50.68477 | 17.67903 | 28222 ft | 370 kts | 113° |
| 2026-05-03 20:48 | 50.67461 | 17.71609 | 27871 ft | 367 kts | 113° |
| 2026-05-03 20:48 | 50.66449 | 17.75289 | 27505 ft | 365 kts | 113° |
| 2026-05-03 20:49 | 50.65443 | 17.78941 | 27158 ft | 362 kts | 113° |
| 2026-05-03 20:49 | 50.64441 | 17.82571 | 26799 ft | 360 kts | 113° |
| 2026-05-03 20:49 | 50.63446 | 17.86175 | 26452 ft | 358 kts | 114° |
| 2026-05-03 20:49 | 50.62454 | 17.89756 | 26103 ft | 356 kts | 114° |
| 2026-05-03 20:50 | 50.61468 | 17.93312 | 25760 ft | 354 kts | 114° |
| 2026-05-03 20:50 | 50.60434 | 17.96826 | 25413 ft | 352 kts | 117° |
| 2026-05-03 20:50 | 50.59301 | 18.00231 | 25071 ft | 351 kts | 117° |
| 2026-05-03 20:50 | 50.58579 | 18.03867 | 24696 ft | 350 kts | 95° |
| 2026-05-03 20:51 | 50.58427 | 18.07663 | 24395 ft | 347 kts | 92° |
| 2026-05-03 20:51 | 50.58338 | 18.11455 | 24036 ft | 347 kts | 92° |
| 2026-05-03 20:51 | 50.58255 | 18.15236 | 23701 ft | 346 kts | 92° |
| 2026-05-03 20:51 | 50.58163 | 18.19018 | 23294 ft | 345 kts | 92° |
| 2026-05-03 20:52 | 50.58060 | 18.22783 | 22924 ft | 344 kts | 93° |
| 2026-05-03 20:52 | 50.57950 | 18.26526 | 22566 ft | 342 kts | 93° |
| 2026-05-03 20:52 | 50.57835 | 18.30252 | 22219 ft | 339 kts | 93° |
| 2026-05-03 20:52 | 50.57719 | 18.33945 | 21889 ft | 337 kts | 93° |
| 2026-05-03 20:53 | 50.57604 | 18.37570 | 21558 ft | 335 kts | 93° |
| 2026-05-03 20:53 | 50.57486 | 18.41221 | 21232 ft | 333 kts | 93° |
| 2026-05-03 20:53 | 50.57366 | 18.44844 | 20934 ft | 330 kts | 94° |
| 2026-05-03 20:53 | 50.57236 | 18.48440 | 20714 ft | 329 kts | 94° |
| 2026-05-03 20:54 | 50.57101 | 18.52061 | 20500 ft | 335 kts | 94° |
| 2026-05-03 20:54 | 50.56821 | 18.59465 | 20023 ft | 340 kts | 94° |
| 2026-05-03 20:54 | 50.56682 | 18.63176 | 19777 ft | 338 kts | 94° |
| 2026-05-03 20:55 | 50.56542 | 18.66846 | 19541 ft | 335 kts | 94° |
| 2026-05-03 20:55 | 50.56402 | 18.70487 | 19299 ft | 333 kts | 94° |
| 2026-05-03 20:55 | 50.56306 | 18.74117 | 19079 ft | 331 kts | 91° |
| 2026-05-03 20:55 | 50.56312 | 18.77721 | 18849 ft | 329 kts | 90° |
| 2026-05-03 20:56 | 50.56347 | 18.81304 | 18621 ft | 327 kts | 90° |
| 2026-05-03 20:56 | 50.56383 | 18.84879 | 18397 ft | 326 kts | 90° |
| 2026-05-03 20:56 | 50.56410 | 18.88437 | 18142 ft | 325 kts | 90° |
| 2026-05-03 20:56 | 50.56431 | 18.91981 | 17891 ft | 323 kts | 90° |
| 2026-05-03 20:57 | 50.56447 | 18.95510 | 17657 ft | 322 kts | 90° |
| 2026-05-03 20:57 | 50.56460 | 18.99029 | 17430 ft | 321 kts | 90° |
| 2026-05-03 20:57 | 50.56472 | 19.02529 | 17205 ft | 320 kts | 90° |
| 2026-05-03 20:57 | 50.56482 | 19.06022 | 16978 ft | 319 kts | 90° |
| 2026-05-03 20:58 | 50.56489 | 19.09510 | 16755 ft | 319 kts | 90° |
| 2026-05-03 20:58 | 50.56495 | 19.12994 | 16532 ft | 318 kts | 91° |
| 2026-05-03 20:58 | 50.56485 | 19.16471 | 16306 ft | 318 kts | 91° |
| 2026-05-03 20:58 | 50.56467 | 19.19945 | 16082 ft | 318 kts | 91° |
| 2026-05-03 20:59 | 50.56447 | 19.23419 | 15849 ft | 318 kts | 91° |
| 2026-05-03 20:59 | 50.56426 | 19.26892 | 15632 ft | 317 kts | 91° |
| 2026-05-03 20:59 | 50.56406 | 19.30363 | 15410 ft | 317 kts | 91° |
| 2026-05-03 20:59 | 50.56385 | 19.33787 | 15187 ft | 317 kts | 91° |
| 2026-05-03 21:00 | 50.56364 | 19.37249 | 14964 ft | 316 kts | 91° |
| 2026-05-03 21:00 | 50.56349 | 19.39583 | 14799 ft | 316 kts | 91° |
| 2026-05-03 21:00 | 50.56319 | 19.44154 | 14517 ft | 315 kts | 91° |
| 2026-05-03 21:00 | 50.56295 | 19.47604 | 14283 ft | 315 kts | 91° |
| 2026-05-03 21:01 | 50.56271 | 19.51048 | 14069 ft | 315 kts | 92° |
| 2026-05-03 21:01 | 50.56245 | 19.54489 | 13842 ft | 314 kts | 92° |
| 2026-05-03 21:01 | 50.56219 | 19.57908 | 13589 ft | 311 kts | 92° |
| 2026-05-03 21:01 | 50.56092 | 19.61263 | 13338 ft | 304 kts | 105° |
| 2026-05-03 21:02 | 50.55225 | 19.64213 | 13132 ft | 295 kts | 129° |
| 2026-05-03 21:02 | 50.53750 | 19.66379 | 12931 ft | 290 kts | 150° |
| 2026-05-03 21:02 | 50.51994 | 19.67873 | 12746 ft | 287 kts | 155° |
| 2026-05-03 21:02 | 50.50200 | 19.69261 | 12533 ft | 286 kts | 155° |
| 2026-05-03 21:03 | 50.48408 | 19.70628 | 12334 ft | 286 kts | 155° |
| 2026-05-03 21:03 | 50.46621 | 19.71997 | 12130 ft | 286 kts | 155° |
| 2026-05-03 21:03 | 50.44838 | 19.73373 | 11930 ft | 286 kts | 155° |
| 2026-05-03 21:03 | 50.43057 | 19.74755 | 11724 ft | 285 kts | 155° |
| 2026-05-03 21:04 | 50.41280 | 19.76139 | 11523 ft | 285 kts | 155° |
| 2026-05-03 21:04 | 50.39504 | 19.77524 | 11326 ft | 285 kts | 155° |
| 2026-05-03 21:04 | 50.37728 | 19.78911 | 11121 ft | 285 kts | 155° |
| 2026-05-03 21:04 | 50.35954 | 19.80295 | 10927 ft | 285 kts | 155° |
| 2026-05-03 21:05 | 50.35039 | 19.81009 | 10828 ft | 285 kts | 155° |
| 2026-05-03 21:05 | 50.33261 | 19.82394 | 10625 ft | 285 kts | 155° |
| 2026-05-03 21:05 | 50.31491 | 19.83772 | 10423 ft | 284 kts | 155° |
| 2026-05-03 21:05 | 50.29725 | 19.85149 | 10223 ft | 283 kts | 155° |
| 2026-05-03 21:06 | 50.27983 | 19.86510 | 10000 ft | 278 kts | 155° |
| 2026-05-03 21:06 | 50.26258 | 19.87857 | 9745 ft | 275 kts | 155° |
| 2026-05-03 21:06 | 50.24567 | 19.89176 | 9533 ft | 270 kts | 155° |
| 2026-05-03 21:06 | 50.22900 | 19.90474 | 9343 ft | 265 kts | 155° |
| 2026-05-03 21:07 | 50.21267 | 19.91793 | 9147 ft | 265 kts | 148° |
| 2026-05-03 21:07 | 50.20008 | 19.93879 | 8966 ft | 268 kts | 120° |
| 2026-05-03 21:07 | 50.19484 | 19.96655 | 8766 ft | 271 kts | 95° |
| 2026-05-03 21:07 | 50.19678 | 19.99561 | 8596 ft | 268 kts | 80° |
| 2026-05-03 21:08 | 50.20072 | 20.02377 | 8399 ft | 264 kts | 79° |
| 2026-05-03 21:08 | 50.20464 | 20.05151 | 8207 ft | 260 kts | 79° |
| 2026-05-03 21:08 | 50.20850 | 20.07882 | 8022 ft | 255 kts | 79° |
| 2026-05-03 21:08 | 50.21216 | 20.10533 | 7847 ft | 251 kts | 80° |
| 2026-05-03 21:09 | 50.21576 | 20.13187 | 7667 ft | 249 kts | 80° |
| 2026-05-03 21:09 | 50.21933 | 20.15843 | 7503 ft | 251 kts | 80° |
| 2026-05-03 21:09 | 50.22292 | 20.18518 | 7326 ft | 252 kts | 80° |
| 2026-05-03 21:09 | 50.22653 | 20.21200 | 7155 ft | 253 kts | 80° |
| 2026-05-03 21:10 | 50.23017 | 20.23890 | 6979 ft | 253 kts | 80° |
| 2026-05-03 21:10 | 50.23376 | 20.26584 | 6801 ft | 252 kts | 82° |
| 2026-05-03 21:10 | 50.23269 | 20.29277 | 6611 ft | 244 kts | 112° |
| 2026-05-03 21:10 | 50.22358 | 20.31388 | 6373 ft | 238 kts | 141° |
| 2026-05-03 21:11 | 50.20941 | 20.32674 | 6060 ft | 237 kts | 163° |
| 2026-05-03 21:11 | 50.19346 | 20.33314 | 5785 ft | 237 kts | 169° |
| 2026-05-03 21:11 | 50.17716 | 20.33664 | 5474 ft | 237 kts | 185° |
| 2026-05-03 21:11 | 50.16171 | 20.32861 | 5194 ft | 236 kts | 216° |
| 2026-05-03 21:12 | 50.15089 | 20.30996 | 5034 ft | 234 kts | 243° |
| 2026-05-03 21:12 | 50.14588 | 20.28609 | 5002 ft | 231 kts | 260° |
| 2026-05-03 21:12 | 50.14371 | 20.26177 | 4978 ft | 222 kts | 262° |
| 2026-05-03 21:12 | 50.14124 | 20.23831 | 4973 ft | 216 kts | 259° |
| 2026-05-03 21:13 | 50.13831 | 20.21542 | 4974 ft | 215 kts | 258° |
| 2026-05-03 21:13 | 50.13517 | 20.19271 | 4981 ft | 214 kts | 257° |
| 2026-05-03 21:13 | 50.13196 | 20.17004 | 4995 ft | 215 kts | 257° |
| 2026-05-03 21:13 | 50.12875 | 20.14752 | 4996 ft | 208 kts | 257° |
| 2026-05-03 21:14 | 50.12572 | 20.12627 | 4900 ft | 196 kts | 257° |
| 2026-05-03 21:14 | 50.12281 | 20.10579 | 4659 ft | 191 kts | 257° |
| 2026-05-03 21:14 | 50.11998 | 20.08580 | 4408 ft | 187 kts | 257° |
| 2026-05-03 21:14 | 50.11719 | 20.06617 | 4162 ft | 183 kts | 257° |
| 2026-05-03 21:15 | 50.11448 | 20.04702 | 3926 ft | 179 kts | 257° |
| 2026-05-03 21:15 | 50.11183 | 20.02828 | 3700 ft | 175 kts | 257° |
| 2026-05-03 21:15 | 50.10925 | 20.00996 | 3472 ft | 171 kts | 257° |
| 2026-05-03 21:15 | 50.10673 | 19.99209 | 3248 ft | 167 kts | 256° |
| 2026-05-03 21:16 | 50.10428 | 19.97470 | 3041 ft | 162 kts | 256° |
| 2026-05-03 21:16 | 50.10187 | 19.95759 | 2828 ft | 161 kts | 256° |
| 2026-05-03 21:16 | 50.09957 | 19.94116 | 2623 ft | 149 kts | 256° |
| 2026-05-03 21:16 | 50.09744 | 19.92601 | 2418 ft | 139 kts | 256° |
| 2026-05-03 21:17 | 50.09540 | 19.91150 | 2239 ft | 137 kts | 256° |
| 2026-05-03 21:17 | 50.09408 | 19.90206 | 2154 ft | 131 kts | 256° |
| 2026-05-03 21:17 | 50.09150 | 19.88364 | 1898 ft | 129 kts | 257° |
| 2026-05-03 21:17 | 50.08956 | 19.86980 | 1726 ft | 133 kts | 257° |
| 2026-05-03 21:18 | 50.08757 | 19.85552 | 1537 ft | 136 kts | 257° |
| 2026-05-03 21:18 | 50.08556 | 19.84122 | 1351 ft | 133 kts | 256° |
| 2026-05-03 21:18 | 50.08360 | 19.82712 | 1183 ft | 135 kts | 257° |
| 2026-05-03 21:18 | 50.08163 | 19.81295 | 1022 ft | 133 kts | 257° |
| 2026-05-03 21:19 | 50.07967 | 19.79879 | 829 ft | 134 kts | 256° |
| 2026-05-03 21:19 | 50.07777 | 19.78557 | 800 ft | 111 kts | 256° |
| 2026-05-03 21:19 | 50.07650 | 19.77614 | 798 ft | 67 kts | 258° |
| 2026-05-03 21:19 | 50.07591 | 19.77192 | 801 ft | 33 kts | 258° |
| 2026-05-03 21:20 | 50.07554 | 19.76918 | 801 ft | 17 kts | 256° |
| 2026-05-03 21:20 | 50.07455 | 19.76858 | 799 ft | 17 kts | 171° |
| 2026-05-03 21:20 | 50.07356 | 19.76888 | 799 ft | 13 kts | 168° |
| 2026-05-03 21:20 | 50.07306 | 19.76984 | 799 ft | 13 kts | 86° |
| 2026-05-03 21:21 | 50.07329 | 19.77115 | 799 ft | 12 kts | 74° |
| 2026-05-03 21:21 | 50.07346 | 19.77246 | 799 ft | 12 kts | 79° |
| 2026-05-03 21:21 | 50.07365 | 19.77372 | 799 ft | 12 kts | 78° |
| 2026-05-03 21:21 | 50.07381 | 19.77496 | 799 ft | 12 kts | 77° |
| 2026-05-03 21:22 | 50.07398 | 19.77616 | 799 ft | 11 kts | 78° |
| 2026-05-03 21:22 | 50.07416 | 19.77747 | 799 ft | 14 kts | 77° |
| 2026-05-03 21:22 | 50.07439 | 19.77905 | 799 ft | 15 kts | 78° |
| 2026-05-03 21:22 | 50.07453 | 19.78012 | 799 ft | 15 kts | 78° |
| 2026-05-03 21:23 | 50.07475 | 19.78166 | 799 ft | 16 kts | 78° |
| 2026-05-03 21:23 | 50.07502 | 19.78363 | 799 ft | 21 kts | 78° |
| 2026-05-03 21:23 | 50.07533 | 19.78584 | 799 ft | 21 kts | 77° |
| 2026-05-03 21:23 | 50.07563 | 19.78798 | 799 ft | 20 kts | 77° |
| 2026-05-03 21:24 | 50.07592 | 19.79007 | 799 ft | 19 kts | 77° |
| 2026-05-03 21:24 | 50.07620 | 19.79208 | 799 ft | 19 kts | 78° |
| 2026-05-03 21:24 | 50.07648 | 19.79403 | 799 ft | 18 kts | 77° |
| 2026-05-03 21:24 | 50.07674 | 19.79592 | 799 ft | 17 kts | 77° |
| 2026-05-03 21:25 | 50.07699 | 19.79772 | 799 ft | 14 kts | 77° |
| 2026-05-03 21:25 | 50.07665 | 19.79879 | 799 ft | 12 kts | 159° |
| 2026-05-03 21:25 | 50.07583 | 19.79909 | 799 ft | 12 kts | 167° |
| 2026-05-03 21:25 | 50.07514 | 19.79964 | 799 ft | 12 kts | 106° |
| 2026-05-03 21:26 | 50.07514 | 19.80054 | 799 ft | 4 kts | 127° |
| 2026-05-03 21:26 | 50.07489 | 19.80072 | 799 ft | 4 kts | 161° |
| 2026-05-03 21:26 | 50.07472 | 19.80079 | 799 ft | 0 kts | 167° |